Time;durP1;ratioP1;P1;durP2;ratioP2;P2;SDS_P1;SDS_P2;PMS_P1;PMS_P2;Temp;Humidity;BMP_temperature;BMP_pressure;BME280_temperature;BME280_humidity;BME280_pressure;Samples;Min_cycle;Max_cycle;Signal;HPM_P1;HPM_P2
2022/01/03 00:01:44;;;;;;;;;;;;;;;10.16;100.00;97817.00;5095306;28;19924;-77
2022/01/03 00:04:11;;;;;;;;;;;;;;;9.95;100.00;97829.63;5095437;28;20325;-77
2022/01/03 00:06:41;;;;;;;;;;;;;;;10.27;100.00;97823.78;5076353;28;19931;-77
2022/01/03 00:09:08;;;;;;;;;;;;;;;10.23;100.00;97827.91;5128347;27;20385;-77
2022/01/03 00:11:36;;;;;;;;;;;;;;;10.46;100.00;97835.91;5093875;28;19950;-77
2022/01/03 00:14:03;;;;;;;;;;;;;;;10.51;100.00;97826.94;5094042;28;19928;-77
2022/01/03 00:16:30;;;;;;;;;;;;;;;10.40;100.00;97820.94;5095052;28;20332;-77
2022/01/03 00:18:58;;;;;;;;;;;;;;;10.13;100.00;97817.91;5091519;28;19935;-77
2022/01/03 00:21:26;;;;;;;;;;;;;;;10.19;100.00;97821.69;5071873;28;19970;-77
2022/01/03 00:23:59;;;;;;;;;;;;;;;10.14;100.00;97825.81;5056914;28;20360;-77
2022/01/03 00:26:28;;;;;;;;;;;;;;;10.02;100.00;97834.19;5056046;28;20022;-77
2022/01/03 00:28:57;;;;;;;;;;;;;;;10.06;100.00;97821.69;5073561;28;20032;-77
2022/01/03 00:31:35;;;;;;;;;;;;;;;9.92;100.00;97829.75;5056739;28;19967;-77
2022/01/03 00:34:04;;;;;;;;;;;;;;;9.85;100.00;97829.97;5072024;28;19928;-77
2022/01/03 00:36:32;;;;;;;;;;;;;;;10.09;100.00;97833.97;5094888;28;19924;-77
2022/01/03 00:39:03;;;;;;;;;;;;;;;10.02;100.00;97828.59;5093746;28;20055;-77
2022/01/03 00:41:39;;;;;;;;;;;;;;;10.08;100.00;97838.00;5093586;28;19931;-77
2022/01/03 00:44:09;;;;;;;;;;;;;;;9.99;100.00;97846.25;5094150;28;19931;-77
2022/01/03 00:46:36;;;;;;;;;;;;;;;9.95;100.00;97840.00;5094821;28;19928;-77
2022/01/03 00:49:03;;;;;;;;;;;;;;;10.04;100.00;97831.75;5076568;28;19935;-77
2022/01/03 00:51:34;;;;;;;;;;;;;;;10.00;100.00;97839.44;5060655;28;19924;-77
2022/01/03 00:54:01;;;;;;;;;;;;;;;10.00;100.00;97831.06;5092799;28;20006;-77
2022/01/03 00:56:43;;;;;;;;;;;;;;;9.73;100.00;97816.81;5092756;28;19932;-77
2022/01/03 00:59:11;;;;;;;;;;;;;;;9.91;100.00;97819.78;5092867;28;19924;-77
2022/01/03 01:01:47;;;;;;;;;;;;;;;9.72;100.00;97823.63;5092904;28;20013;-77
2022/01/03 01:04:15;;;;;;;;;;;;;;;9.70;100.00;97834.44;5092362;28;19974;-77
2022/01/03 01:06:51;;;;;;;;;;;;;;;10.02;100.00;97828.59;5092683;28;19985;-77
2022/01/03 01:09:19;;;;;;;;;;;;;;;10.27;100.00;97834.94;5093344;28;20274;-77
2022/01/03 01:11:50;;;;;;;;;;;;;;;10.23;100.00;97823.13;5093289;28;19931;-77
2022/01/03 01:14:22;;;;;;;;;;;;;;;10.23;100.00;97811.16;5093265;28;19928;-77
2022/01/03 01:16:52;;;;;;;;;;;;;;;10.34;100.00;97817.97;5076446;28;19931;-77
2022/01/03 01:19:20;;;;;;;;;;;;;;;10.19;100.00;97813.31;5076285;28;19955;-77
2022/01/03 01:21:51;;;;;;;;;;;;;;;10.08;100.00;97813.69;5093163;28;20037;-77
2022/01/03 01:24:21;;;;;;;;;;;;;;;9.95;100.00;97817.69;5092922;28;19924;-77
2022/01/03 01:29:41;;;;;;;;;;;;;;;10.04;100.00;97812.22;5093075;28;19931;-76
2022/01/03 01:32:14;;;;;;;;;;;;;;;9.89;100.00;97822.28;5093015;28;19924;-76
2022/01/03 01:34:44;;;;;;;;;;;;;;;9.97;100.00;97827.16;5052853;28;19925;-77
2022/01/03 01:37:16;;;;;;;;;;;;;;;9.99;100.00;97830.28;5051227;28;19932;-77
2022/01/03 01:39:46;;;;;;;;;;;;;;;9.84;100.00;97828.41;5035919;28;19928;-77
2022/01/03 01:42:15;;;;;;;;;;;;;;;10.01;100.00;97827.06;5053242;28;20035;-77
2022/01/03 01:44:46;;;;;;;;;;;;;;;10.25;100.00;97839.44;5052392;28;19925;-77
2022/01/03 01:47:18;;;;;;;;;;;;;;;10.16;100.00;97833.75;5052608;28;20027;-76
2022/01/03 01:49:46;;;;;;;;;;;;;;;10.15;100.00;97832.97;5052538;28;20304;-77
2022/01/03 01:52:18;;;;;;;;;;;;;;;10.18;100.00;97831.28;5035807;28;19932;-77
2022/01/03 01:55:09;;;;;;;;;;;;;;;10.19;100.00;97830.06;5052502;28;20288;-77
2022/01/03 01:57:57;;;;;;;;;;;;;;;10.19;100.00;97825.25;5048408;28;19925;-77
2022/01/03 02:00:33;;;;;;;;;;;;;;;10.31;100.00;97818.09;5037127;28;19932;-77
2022/01/03 02:03:15;;;;;;;;;;;;;;;10.15;100.00;97815.44;5035883;28;19972;-77
2022/01/03 02:05:56;;;;;;;;;;;;;;;10.17;100.00;97804.59;5052461;28;19929;-77
2022/01/03 02:08:28;;;;;;;;;;;;;;;10.37;100.00;97825.44;5052244;28;20027;-76
2022/01/03 02:11:07;;;;;;;;;;;;;;;10.25;100.00;97820.66;5052165;28;19928;-76
2022/01/03 02:13:36;;;;;;;;;;;;;;;10.17;100.00;97824.13;5036152;28;19925;-77
2022/01/03 02:16:03;;;;;;;;;;;;;;;10.18;100.00;97812.53;5052305;28;20394;-76
2022/01/03 02:18:36;;;;;;;;;;;;;;;10.28;100.00;97818.97;5052326;28;19929;-77
2022/01/03 02:21:07;;;;;;;;;;;;;;;9.91;100.00;97817.81;5085491;28;19931;-76
2022/01/03 02:23:35;;;;;;;;;;;;;;;10.04;100.00;97824.13;5052052;28;20018;-77
2022/01/03 02:26:03;;;;;;;;;;;;;;;9.91;100.00;97822.59;5051989;28;19929;-77
2022/01/03 02:28:30;;;;;;;;;;;;;;;10.03;100.00;97824.56;5052201;28;19932;-76
2022/01/03 02:30:58;;;;;;;;;;;;;;;9.93;100.00;97808.97;5065196;28;19929;-77
2022/01/03 02:33:25;;;;;;;;;;;;;;;9.89;100.00;97814.66;5092280;28;19972;-77
2022/01/03 02:35:53;;;;;;;;;;;;;;;9.61;100.00;97823.19;5079422;28;19924;-77
2022/01/03 02:38:22;;;;;;;;;;;;;;;9.78;100.00;97819.03;5079543;28;19924;-77
2022/01/03 02:40:49;;;;;;;;;;;;;;;9.70;100.00;97823.28;5095985;28;19924;-76
2022/01/03 02:43:23;;;;;;;;;;;;;;;9.68;100.00;97820.19;5095752;28;19962;-77
2022/01/03 02:45:50;;;;;;;;;;;;;;;9.58;100.00;97813.72;5078957;28;19938;-77
2022/01/03 02:48:23;;;;;;;;;;;;;;;9.53;100.00;97807.88;5079198;28;20497;-77
2022/01/03 02:50:53;;;;;;;;;;;;;;;9.43;100.00;97820.16;5078763;28;20022;-77
2022/01/03 02:53:21;;;;;;;;;;;;;;;9.44;100.00;97810.56;5095661;28;20338;-75
2022/01/03 02:55:51;;;;;;;;;;;;;;;9.73;100.00;97805.66;5078750;28;19924;-75
2022/01/03 02:58:19;;;;;;;;;;;;;;;9.65;100.00;97804.34;5078754;28;20275;-76
2022/01/03 03:00:50;;;;;;;;;;;;;;;9.70;100.00;97814.91;5095556;28;20018;-76
2022/01/03 03:03:27;;;;;;;;;;;;;;;9.55;100.00;97803.44;5078666;28;19978;-76
2022/01/03 03:05:58;;;;;;;;;;;;;;;9.53;100.00;97803.09;5079031;28;19924;-76
2022/01/03 03:08:31;;;;;;;;;;;;;;;9.60;100.00;97797.31;5078580;28;19924;-76
2022/01/03 03:10:58;;;;;;;;;;;;;;;9.61;100.00;97806.44;5078605;28;19924;-76
2022/01/03 03:13:25;;;;;;;;;;;;;;;9.64;100.00;97813.91;5078585;28;19931;-75
2022/01/03 03:15:54;;;;;;;;;;;;;;;9.59;100.00;97803.34;5061963;28;19939;-76
2022/01/03 03:18:22;;;;;;;;;;;;;;;9.44;100.00;97802.19;5095176;28;20558;-75
2022/01/03 03:20:49;;;;;;;;;;;;;;;9.60;100.00;97799.31;5095126;28;19931;-75
2022/01/03 03:23:17;;;;;;;;;;;;;;;9.43;100.00;97792.28;5095180;28;19928;-76
2022/01/03 03:25:44;;;;;;;;;;;;;;;9.47;100.00;97798.53;5094983;28;19927;-75
2022/01/03 03:28:13;;;;;;;;;;;;;;;9.45;100.00;97789.84;5094976;28;19925;-75
2022/01/03 03:30:47;;;;;;;;;;;;;;;9.69;100.00;97793.84;5094881;28;19977;-75
2022/01/03 03:33:38;;;;;;;;;;;;;;;9.79;100.00;97782.34;5082382;28;19930;-75
2022/01/03 03:36:06;;;;;;;;;;;;;;;9.85;100.00;97774.16;5074654;28;20019;-76
2022/01/03 03:38:34;;;;;;;;;;;;;;;9.87;100.00;97774.50;5074265;28;19931;-75
2022/01/03 03:41:06;;;;;;;;;;;;;;;9.88;100.00;97778.84;5058534;28;19924;-75
2022/01/03 03:43:39;;;;;;;;;;;;;;;9.93;100.00;97781.88;5074307;28;19925;-76
2022/01/03 03:46:10;;;;;;;;;;;;;;;10.10;100.00;97788.88;5058607;28;19925;-75
2022/01/03 03:48:39;;;;;;;;;;;;;;;9.98;100.00;97781.28;5074329;28;19928;-76
2022/01/03 03:51:08;;;;;;;;;;;;;;;10.12;100.00;97786.41;5074309;28;19924;-75
2022/01/03 03:53:35;;;;;;;;;;;;;;;9.93;100.00;97775.50;5074019;28;20007;-75
2022/01/03 03:56:03;;;;;;;;;;;;;;;9.81;100.00;97767.94;5057495;28;19934;-75
2022/01/03 03:58:33;;;;;;;;;;;;;;;9.83;100.00;97779.44;5075428;28;20014;-75
2022/01/03 04:01:00;;;;;;;;;;;;;;;10.11;100.00;97786.88;5057550;28;20393;-76
2022/01/03 04:03:36;;;;;;;;;;;;;;;9.80;100.00;97783.88;5057252;28;19931;-75
2022/01/03 04:06:03;;;;;;;;;;;;;;;10.11;100.00;97770.13;5057463;28;20453;-76
2022/01/03 04:08:30;;;;;;;;;;;;;;;10.15;100.00;97759.59;5073741;28;19925;-76
2022/01/03 04:10:59;;;;;;;;;;;;;;;10.10;100.00;97763.00;5073939;28;20023;-76
2022/01/03 04:13:27;;;;;;;;;;;;;;;10.01;100.00;97783.16;5057641;28;19935;-75
2022/01/03 04:15:56;;;;;;;;;;;;;;;10.08;100.00;97765.44;5073861;28;20382;-75
2022/01/03 04:18:34;;;;;;;;;;;;;;;9.96;100.00;97780.19;5073818;28;20019;-76
2022/01/03 04:21:09;;;;;;;;;;;;;;;10.17;100.00;97771.91;5073606;28;19924;-75
2022/01/03 04:23:36;;;;;;;;;;;;;;;10.05;100.00;97766.31;5073511;28;19925;-76
2022/01/03 04:26:05;;;;;;;;;;;;;;;10.18;100.00;97765.06;5073650;28;20011;-75
2022/01/03 04:28:34;;;;;;;;;;;;;;;10.12;100.00;97766.09;5057256;28;19939;-76
2022/01/03 04:31:01;;;;;;;;;;;;;;;10.03;100.00;97754.81;5073487;28;20318;-76
2022/01/03 04:33:34;;;;;;;;;;;;;;;9.98;100.00;97774.94;5068631;28;19951;-75
2022/01/03 04:36:03;;;;;;;;;;;;;;;9.81;100.00;97767.94;5093402;28;19932;-75
2022/01/03 04:38:30;;;;;;;;;;;;;;;10.00;100.00;97778.84;5093617;28;19971;-76
2022/01/03 04:40:57;;;;;;;;;;;;;;;9.72;100.00;97770.63;5093515;28;19934;-76
2022/01/03 04:43:24;;;;;;;;;;;;;;;9.61;100.00;97773.78;5093303;28;20291;-75
2022/01/03 04:45:56;;;;;;;;;;;;;;;9.70;100.00;97770.28;5076584;28;20019;-76
2022/01/03 04:48:23;;;;;;;;;;;;;;;9.72;100.00;97771.44;5060035;28;19924;-75
2022/01/03 04:50:50;;;;;;;;;;;;;;;9.70;100.00;97761.94;5093208;28;19931;-75
2022/01/03 04:53:18;;;;;;;;;;;;;;;9.71;100.00;97771.88;5092695;28;19928;-75
2022/01/03 04:55:47;;;;;;;;;;;;;;;9.70;100.00;97767.50;5094468;28;19940;-75
2022/01/03 04:58:18;;;;;;;;;;;;;;;9.84;100.00;97767.03;5093321;28;19928;-76
2022/01/03 05:00:49;;;;;;;;;;;;;;;9.75;100.00;97769.72;5093097;28;20374;-76
2022/01/03 05:03:16;;;;;;;;;;;;;;;9.71;100.00;97769.09;5093137;28;20367;-76
2022/01/03 05:05:43;;;;;;;;;;;;;;;9.95;100.00;97761.88;5075938;28;20371;-76
2022/01/03 05:08:11;;;;;;;;;;;;;;;10.11;100.00;97765.34;5076471;28;19923;-75
2022/01/03 05:10:38;;;;;;;;;;;;;;;9.72;100.00;97753.91;5092787;28;19924;-76
2022/01/03 05:13:06;;;;;;;;;;;;;;;9.91;100.00;97758.41;5076496;28;19924;-76
2022/01/03 05:15:34;;;;;;;;;;;;;;;9.88;100.00;97750.94;5092857;28;19978;-76
2022/01/03 05:18:02;;;;;;;;;;;;;;;9.78;100.00;97763.25;5076215;28;19962;-75
2022/01/03 05:20:29;;;;;;;;;;;;;;;9.64;100.00;97761.72;5092679;28;19931;-76
2022/01/03 05:22:58;;;;;;;;;;;;;;;9.52;100.00;97768.09;5043398;28;20490;-76
2022/01/03 05:25:26;;;;;;;;;;;;;;;9.40;100.00;97766.09;5075981;28;19969;-76
2022/01/03 05:27:54;;;;;;;;;;;;;;;9.33;100.00;97780.25;5076136;28;20020;-75
2022/01/03 05:30:21;;;;;;;;;;;;;;;9.55;100.00;97780.34;5092494;28;20248;-75
2022/01/03 05:32:48;;;;;;;;;;;;;;;9.48;100.00;97784.13;5087797;28;19972;-75
2022/01/03 05:35:15;;;;;;;;;;;;;;;9.26;100.00;97785.25;5072333;28;19925;-75
2022/01/03 05:37:42;;;;;;;;;;;;;;;9.40;100.00;97784.81;5039421;28;19946;-76
2022/01/03 05:40:10;;;;;;;;;;;;;;;9.23;100.00;97788.94;5055592;28;19964;-76
2022/01/03 05:42:40;;;;;;;;;;;;;;;9.23;100.00;97794.50;5055430;28;20306;-76
2022/01/03 05:45:08;;;;;;;;;;;;;;;9.37;100.00;97788.50;5067641;28;19935;-75
2022/01/03 05:47:35;;;;;;;;;;;;;;;9.29;100.00;97798.28;5071369;28;19951;-75
2022/01/03 05:50:06;;;;;;;;;;;;;;;9.24;100.00;97801.66;5094218;28;19931;-75
2022/01/03 05:52:33;;;;;;;;;;;;;;;9.35;100.00;97796.50;5075544;28;20419;-75
2022/01/03 05:55:01;;;;;;;;;;;;;;;9.43;100.00;97786.72;5092503;28;19924;-75
2022/01/03 05:57:30;;;;;;;;;;;;;;;9.47;100.00;97792.94;5076047;28;19924;-75
2022/01/03 06:00:00;;;;;;;;;;;;;;;9.81;100.00;97785.47;5059283;28;20428;-76
2022/01/03 06:02:30;;;;;;;;;;;;;;;9.71;100.00;97783.78;5068835;28;20070;-75
2022/01/03 06:05:02;;;;;;;;;;;;;;;9.52;100.00;97795.19;5075260;28;19924;-76
2022/01/03 06:07:31;;;;;;;;;;;;;;;9.40;100.00;97782.03;5075769;28;20333;-75
2022/01/03 06:09:59;;;;;;;;;;;;;;;9.61;100.00;97782.13;5059228;28;19924;-75
2022/01/03 06:12:26;;;;;;;;;;;;;;;9.57;100.00;97775.91;5059407;28;19924;-75
2022/01/03 06:14:55;;;;;;;;;;;;;;;9.55;100.00;97777.56;5075486;28;19931;-75
2022/01/03 06:17:23;;;;;;;;;;;;;;;9.69;100.00;97768.75;5058930;28;20398;-76
2022/01/03 06:21:25;;;;;;;;;;;;;;;9.48;100.00;97772.97;5091301;28;20333;-76
2022/01/03 06:23:54;;;;;;;;;;;;;;;9.42;100.00;97765.66;5073553;28;19951;-76
2022/01/03 06:26:20;;;;;;;;;;;;;;;9.53;100.00;97763.28;5090041;28;20311;-76
2022/01/03 06:28:50;;;;;;;;;;;;;;;9.54;100.00;97748.13;5073130;28;19924;-76
2022/01/03 06:31:21;;;;;;;;;;;;;;;9.31;100.00;97756.84;5073088;28;19925;-76
2022/01/03 06:33:50;;;;;;;;;;;;;;;9.20;100.00;97751.59;5056875;28;19930;-76
2022/01/03 06:36:18;;;;;;;;;;;;;;;8.87;100.00;97745.44;5073029;28;19931;-76
2022/01/03 06:38:45;;;;;;;;;;;;;;;9.06;100.00;97752.03;5073151;28;19924;-76
2022/01/03 06:41:12;;;;;;;;;;;;;;;9.18;100.00;97745.69;5101907;28;20372;-76
2022/01/03 06:43:40;;;;;;;;;;;;;;;9.14;100.00;97754.16;5073013;28;19924;-76
2022/01/03 06:46:08;;;;;;;;;;;;;;;9.14;100.00;97748.59;5072838;28;19928;-76
2022/01/03 06:48:35;;;;;;;;;;;;;;;9.32;100.00;97761.16;5106102;28;20275;-76
2022/01/03 06:51:02;;;;;;;;;;;;;;;9.18;100.00;97749.25;5072845;28;19924;-76
2022/01/03 06:53:30;;;;;;;;;;;;;;;9.40;100.00;97749.38;5089555;28;19924;-76
2022/01/03 06:55:58;;;;;;;;;;;;;;;9.47;100.00;97754.72;5072558;28;20015;-76
2022/01/03 06:58:26;;;;;;;;;;;;;;;9.49;100.00;97757.03;5056179;28;19932;-76
2022/01/03 07:00:54;;;;;;;;;;;;;;;9.62;100.00;97757.81;5072196;28;19924;-76
2022/01/03 07:03:21;;;;;;;;;;;;;;;9.59;100.00;97756.69;5072459;28;19932;-76
2022/01/03 07:05:47;;;;;;;;;;;;;;;9.79;100.00;97753.66;5089217;28;19929;-76
2022/01/03 07:08:14;;;;;;;;;;;;;;;9.72;100.00;97757.47;5089285;28;20014;-76
2022/01/03 07:10:42;;;;;;;;;;;;;;;9.88;100.00;97759.31;5090420;28;19924;-76
2022/01/03 07:13:09;;;;;;;;;;;;;;;9.82;100.00;97758.34;5090408;28;19925;-76
2022/01/03 07:21:07;;;;;;;;;;;;;;;9.48;100.00;97755.50;5088738;27;19928;-76
2022/01/03 07:23:34;;;;;;;;;;;;;;;9.61;100.00;97743.09;5088973;28;19930;-76
2022/01/03 07:26:02;;;;;;;;;;;;;;;9.63;100.00;97745.44;5090266;28;19928;-76
2022/01/03 07:28:29;;;;;;;;;;;;;;;9.53;100.00;97746.53;5072023;28;20074;-76
2022/01/03 07:30:56;;;;;;;;;;;;;;;9.38;100.00;97751.03;5086526;28;20059;-76
2022/01/03 07:33:23;;;;;;;;;;;;;;;9.69;100.00;97750.00;5075410;28;19924;-76
2022/01/03 07:35:50;;;;;;;;;;;;;;;9.43;100.00;97756.03;5075258;28;19967;-76
2022/01/03 07:38:18;;;;;;;;;;;;;;;9.64;100.00;97752.56;5075149;28;20015;-76
2022/01/03 07:44:03;;;;;;;;;;;;;;;9.42;100.00;97762.84;5069264;28;19931;-78
2022/01/03 07:46:31;;;;;;;;;;;;;;;9.09;100.00;97748.34;5093636;28;19925;-75
2022/01/03 07:48:58;;;;;;;;;;;;;;;9.10;100.00;97764.63;5063483;28;19932;-77
2022/01/03 07:51:26;;;;;;;;;;;;;;;9.18;100.00;97760.41;5054975;28;19924;-76
2022/01/03 07:53:53;;;;;;;;;;;;;;;9.36;100.00;97754.25;5088494;28;20002;-77
2022/01/03 07:56:22;;;;;;;;;;;;;;;9.46;100.00;97752.38;5055559;28;20372;-77
2022/01/03 07:58:52;;;;;;;;;;;;;;;9.47;100.00;97759.50;5074645;28;20347;-77
2022/01/03 08:01:19;;;;;;;;;;;;;;;9.48;100.00;97758.28;5075886;28;19931;-77
2022/01/03 08:03:46;;;;;;;;;;;;;;;9.37;100.00;97766.97;5057817;28;19979;-77
2022/01/03 08:06:20;;;;;;;;;;;;;;;9.43;100.00;97772.78;5074579;28;19936;-77
2022/01/03 08:08:46;;;;;;;;;;;;;;;9.54;100.00;97776.81;5074607;28;19931;-77
2022/01/03 08:11:13;;;;;;;;;;;;;;;9.25;100.00;97770.56;5057906;28;20391;-77
2022/01/03 08:13:40;;;;;;;;;;;;;;;9.14;100.00;97765.31;5074437;28;19924;-77
2022/01/03 08:16:08;;;;;;;;;;;;;;;9.06;100.00;97769.53;5074654;28;19935;-77
2022/01/03 08:18:35;;;;;;;;;;;;;;;9.18;100.00;97770.75;5075866;28;19924;-77
2022/01/03 08:21:04;;;;;;;;;;;;;;;9.09;100.00;97774.22;5074231;28;19987;-77
2022/01/03 08:23:32;;;;;;;;;;;;;;;8.97;100.00;97772.19;5075556;28;19947;-77
2022/01/03 08:25:59;;;;;;;;;;;;;;;8.90;100.00;97772.41;5075386;28;19925;-77
2022/01/03 08:28:27;;;;;;;;;;;;;;;9.15;100.00;97778.00;5074195;28;19998;-77
2022/01/03 08:30:54;;;;;;;;;;;;;;;8.97;100.00;97786.13;5069102;28;19925;-76
2022/01/03 08:33:21;;;;;;;;;;;;;;;9.14;100.00;97787.59;5064925;28;19925;-77
2022/01/03 08:35:49;;;;;;;;;;;;;;;8.84;100.00;97785.34;5070448;28;19929;-77
2022/01/03 08:38:16;;;;;;;;;;;;;;;8.69;100.00;97781.38;5054196;28;19975;-76
2022/01/03 08:40:43;;;;;;;;;;;;;;;8.65;100.00;97766.78;5061644;28;19924;-76
2022/01/03 08:43:11;;;;;;;;;;;;;;;8.75;100.00;97787.94;5072887;28;19931;-76
2022/01/03 08:45:37;;;;;;;;;;;;;;;8.80;100.00;97767.13;5073635;28;20011;-76
2022/01/03 08:48:31;;;;;;;;;;;;;;;8.84;100.00;97790.91;5074924;28;19928;-77
2022/01/03 08:50:58;;;;;;;;;;;;;;;9.10;100.00;97789.69;5056473;28;20449;-76
2022/01/03 08:53:28;;;;;;;;;;;;;;;9.02;100.00;97785.59;5073776;28;19932;-77
2022/01/03 08:55:57;;;;;;;;;;;;;;;9.22;100.00;97787.38;5073687;28;19928;-77
2022/01/03 08:58:24;;;;;;;;;;;;;;;9.65;100.00;97793.19;5056565;28;19970;-77
2022/01/03 09:00:51;;;;;;;;;;;;;;;9.52;100.00;97784.03;5061956;28;20318;-77
2022/01/03 09:03:19;;;;;;;;;;;;;;;9.50;100.00;97786.47;5074566;28;19928;-77
2022/01/03 09:05:46;;;;;;;;;;;;;;;9.67;100.00;97773.97;5057062;28;20330;-77
2022/01/03 09:08:13;;;;;;;;;;;;;;;9.75;100.00;97775.31;5073423;28;19947;-77
2022/01/03 09:10:40;;;;;;;;;;;;;;;9.69;100.00;97774.31;5056752;28;20424;-77
2022/01/03 09:13:07;;;;;;;;;;;;;;;9.67;100.00;97780.34;5073073;28;19986;-77
2022/01/03 09:15:36;;;;;;;;;;;;;;;9.72;100.00;97785.38;5056771;28;20330;-77
2022/01/03 09:18:03;;;;;;;;;;;;;;;9.87;100.00;97777.31;5073246;28;19971;-77
2022/01/03 09:20:31;;;;;;;;;;;;;;;9.80;100.00;97772.72;5074207;28;20431;-77
2022/01/03 09:23:07;;;;;;;;;;;;;;;9.70;100.00;97770.28;5054903;28;19970;-77
2022/01/03 09:30:55;;;;;;;;;;;;;;;9.47;100.00;97759.50;5073400;28;19978;-76
2022/01/03 09:33:25;;;;;;;;;;;;;;;9.43;100.00;97758.84;5074472;28;20384;-76
2022/01/03 09:35:52;;;;;;;;;;;;;;;9.23;100.00;97766.63;5073008;28;19924;-76
2022/01/03 09:38:19;;;;;;;;;;;;;;;9.65;100.00;97754.16;5054700;28;19932;-79
2022/01/03 09:40:54;;;;;;;;;;;;;;;9.68;100.00;97753.25;5065194;28;20292;-89
2022/01/03 09:43:25;;;;;;;;;;;;;;;9.72;100.00;97759.47;5066356;27;20530;-77
2022/01/03 09:45:53;;;;;;;;;;;;;;;9.84;100.00;97762.25;5094215;28;20359;-76
2022/01/03 09:48:21;;;;;;;;;;;;;;;9.81;100.00;97762.38;5067991;28;20359;-77
2022/01/03 09:50:49;;;;;;;;;;;;;;;10.08;100.00;97760.66;5068546;28;20090;-77
2022/01/03 09:53:18;;;;;;;;;;;;;;;9.93;100.00;97753.97;5068812;28;20023;-76
2022/01/03 09:55:46;;;;;;;;;;;;;;;10.17;100.00;97759.94;5068904;28;20022;-77
2022/01/03 09:58:15;;;;;;;;;;;;;;;10.10;100.00;97755.38;5069175;28;19931;-77
2022/01/03 10:00:42;;;;;;;;;;;;;;;10.10;100.00;97763.00;5069424;28;19928;-77
2022/01/03 10:03:12;;;;;;;;;;;;;;;10.17;100.00;97757.16;5050162;28;19925;-77
2022/01/03 10:05:41;;;;;;;;;;;;;;;9.96;100.00;97753.06;5063622;28;20532;-77
2022/01/03 10:08:08;;;;;;;;;;;;;;;10.28;100.00;97754.78;5049382;28;20078;-77
2022/01/03 10:10:35;;;;;;;;;;;;;;;10.30;100.00;97746.75;5049527;28;19964;-77
2022/01/03 10:13:02;;;;;;;;;;;;;;;10.11;100.00;97742.22;5049115;28;19924;-77
2022/01/03 10:15:30;;;;;;;;;;;;;;;10.26;100.00;97741.28;5059008;28;19924;-92
2022/01/03 10:18:00;;;;;;;;;;;;;;;10.26;100.00;97720.94;5067926;28;19932;-78
2022/01/03 10:20:30;;;;;;;;;;;;;;;10.47;100.00;97748.09;5069683;28;20285;-75
2022/01/03 10:23:07;;;;;;;;;;;;;;;10.63;100.00;97747.91;5070574;28;19925;-75
2022/01/03 10:25:35;;;;;;;;;;;;;;;10.64;100.00;97749.47;5053624;28;19924;-75
2022/01/03 10:28:05;;;;;;;;;;;;;;;10.76;100.00;97746.59;5069637;28;19924;-75
2022/01/03 10:33:02;;;;;;;;;;;;;;;10.85;100.00;97740.28;5121860;27;19912;-75
2022/01/03 10:35:34;;;;;;;;;;;;;;;10.85;100.00;97734.69;5130799;28;19924;-75
2022/01/03 10:38:02;;;;;;;;;;;;;;;11.00;100.00;97735.72;5112540;28;19931;-74
2022/01/03 10:40:31;;;;;;;;;;;;;;;11.12;100.00;97723.66;5105047;28;19956;-74
2022/01/03 10:43:12;;;;;;;;;;;;;;;11.36;100.00;97721.88;5093346;28;19924;-75
2022/01/03 10:45:39;;;;;;;;;;;;;;;11.31;100.00;97738.50;5123215;28;19978;-75
2022/01/03 10:48:28;;;;;;;;;;;;;;;11.06;100.00;97739.47;5085989;28;19963;-74
2022/01/03 10:50:56;;;;;;;;;;;;;;;11.02;100.00;97727.66;5109397;28;19928;-74
2022/01/03 10:53:54;;;;;;;;;;;;;;;11.23;100.00;97738.00;5110143;28;19924;-75
2022/01/03 10:56:21;;;;;;;;;;;;;;;11.37;100.00;97731.06;5090385;28;19967;-75
2022/01/03 10:59:22;;;;;;;;;;;;;;;11.35;100.00;97723.13;5091158;28;20278;-75
2022/01/03 11:01:53;;;;;;;;;;;;;;;11.44;100.00;97736.38;5072809;28;19989;-74
2022/01/03 11:04:24;;;;;;;;;;;;;;;11.45;100.00;97735.91;5101719;28;19931;-74
2022/01/03 11:13:09;;;;;;;;;;;;;;;11.57;100.00;97723.81;5109682;28;19977;-75
2022/01/03 11:15:41;;;;;;;;;;;;;;;11.57;100.00;97723.81;5109850;28;19924;-75
2022/01/03 11:18:09;;;;;;;;;;;;;;;11.44;100.00;97723.16;5110947;28;20256;-75
2022/01/03 11:20:36;;;;;;;;;;;;;;;11.39;100.00;97720.97;5110849;28;20306;-75
2022/01/03 11:23:06;;;;;;;;;;;;;;;11.54;100.00;97723.97;5110520;28;19959;-75
2022/01/03 11:25:34;;;;;;;;;;;;;;;11.49;100.00;97721.78;5110555;28;19934;-75
2022/01/03 11:28:02;;;;;;;;;;;;;;;11.24;100.00;97717.19;5110062;28;20380;-75
2022/01/03 11:30:29;;;;;;;;;;;;;;;11.33;100.00;97720.00;5087260;28;19993;-74
2022/01/03 11:32:56;;;;;;;;;;;;;;;11.42;100.00;97705.31;5113353;28;20061;-75
2022/01/03 11:35:28;;;;;;;;;;;;;;;11.17;100.00;97711.88;5130360;28;19996;-75
2022/01/03 11:37:58;;;;;;;;;;;;;;;11.16;100.00;97703.97;5130110;28;19924;-75
2022/01/03 11:40:26;;;;;;;;;;;;;;;11.21;100.00;97706.91;5095450;28;19923;-75
2022/01/03 11:42:54;;;;;;;;;;;;;;;11.25;100.00;97718.75;5107458;28;19934;-74
2022/01/03 11:45:22;;;;;;;;;;;;;;;11.67;100.00;97724.66;5099303;28;19967;-74
2022/01/03 11:47:50;;;;;;;;;;;;;;;11.65;100.00;97711.13;5082184;28;20018;-75
2022/01/03 11:50:20;;;;;;;;;;;;;;;11.71;100.00;97695.28;5117065;28;19928;-75
2022/01/03 11:52:48;;;;;;;;;;;;;;;11.80;100.00;97703.69;5116864;28;19930;-75
2022/01/03 11:55:18;;;;;;;;;;;;;;;11.96;100.00;97694.25;5099108;28;19949;-74
2022/01/03 12:03:40;;;;;;;;;;;;;;;11.83;100.00;97691.56;5098786;28;20034;-75
2022/01/03 12:06:08;;;;;;;;;;;;;;;11.95;100.00;97682.25;5115619;28;19930;-75
2022/01/03 12:08:39;;;;;;;;;;;;;;;11.44;100.00;97681.22;5081789;28;19924;-75
2022/01/03 12:11:20;;;;;;;;;;;;;;;11.35;100.00;97689.59;5098044;28;19931;-75
2022/01/03 12:14:05;;;;;;;;;;;;;;;11.40;100.00;97689.00;5098795;28;20303;-75
2022/01/03 12:16:57;;;;;;;;;;;;;;;11.40;100.00;97679.81;5098323;28;19966;-75
2022/01/03 12:19:24;;;;;;;;;;;;;;;11.62;100.00;97675.69;5070128;28;20058;-75
2022/01/03 12:21:53;;;;;;;;;;;;;;;11.57;100.00;97673.47;5081265;28;19924;-75
2022/01/03 12:24:25;;;;;;;;;;;;;;;11.48;100.00;97658.72;5116549;28;19989;-75
2022/01/03 12:27:14;;;;;;;;;;;;;;;11.61;100.00;97674.13;5098306;28;20428;-75
2022/01/03 12:29:50;;;;;;;;;;;;;;;11.69;100.00;97667.00;5070086;28;19924;-75
2022/01/03 12:32:17;;;;;;;;;;;;;;;11.63;100.00;97660.47;5096551;28;19977;-75
2022/01/03 12:34:45;;;;;;;;;;;;;;;11.74;100.00;97658.00;5095618;28;19932;-75
2022/01/03 12:37:14;;;;;;;;;;;;;;;11.73;100.00;97656.44;5077521;28;19963;-75
2022/01/03 12:40:00;;;;;;;;;;;;;;;11.67;100.00;97649.91;5060975;28;19964;-75
2022/01/03 12:42:46;;;;;;;;;;;;;;;11.55;100.00;97656.38;5095532;28;19924;-74
2022/01/03 12:45:14;;;;;;;;;;;;;;;11.55;100.00;97641.63;5077690;28;19936;-74
2022/01/03 12:47:41;;;;;;;;;;;;;;;11.82;100.00;97650.84;5082093;28;19931;-75
2022/01/03 12:50:29;;;;;;;;;;;;;;;11.46;100.00;97645.19;5078487;28;19932;-75
2022/01/03 12:52:58;;;;;;;;;;;;;;;11.55;100.00;97652.81;5065782;28;19973;-75
2022/01/03 12:55:37;;;;;;;;;;;;;;;11.79;100.00;97629.41;5114364;28;19924;-75
2022/01/03 12:58:13;;;;;;;;;;;;;;;11.56;100.00;97626.38;5097104;28;20371;-75
2022/01/03 13:00:41;;;;;;;;;;;;;;;11.79;100.00;97618.22;5114907;28;20461;-75
2022/01/03 13:03:28;;;;;;;;;;;;;;;11.68;100.00;97623.47;5096728;28;19924;-75
2022/01/03 13:06:14;;;;;;;;;;;;;;;11.60;100.00;97622.19;5115203;28;20395;-74
2022/01/03 13:08:42;;;;;;;;;;;;;;;11.66;100.00;97622.41;5107544;28;19951;-75
2022/01/03 13:11:14;;;;;;;;;;;;;;;11.70;100.00;97620.22;5094439;28;20010;-75
2022/01/03 13:13:45;;;;;;;;;;;;;;;11.82;100.00;97614.47;5076357;28;19924;-75
2022/01/03 13:16:18;;;;;;;;;;;;;;;11.82;100.00;97617.28;5094579;28;20024;-75
2022/01/03 13:18:45;;;;;;;;;;;;;;;11.63;100.00;97615.69;5076746;28;20363;-75
2022/01/03 13:21:15;;;;;;;;;;;;;;;11.74;100.00;97621.63;5081895;28;20373;-75
2022/01/03 13:23:51;;;;;;;;;;;;;;;11.58;100.00;97613.50;5078880;28;19930;-75
2022/01/03 13:26:21;;;;;;;;;;;;;;;11.70;100.00;97609.81;5075992;28;19924;-75
2022/01/03 13:28:50;;;;;;;;;;;;;;;11.66;100.00;97614.00;5075501;28;19960;-75
2022/01/03 13:31:19;;;;;;;;;;;;;;;11.60;100.00;97605.41;5059809;28;19930;-75